sensor_id;sensor_type;location;lat;lon;timestamp;P1;durP1;ratioP1;P2;durP2;ratioP2
51836;SDS011;38941;53.254;6.600;2023-02-15T00:02:30;27.48;;;14.77;;
51836;SDS011;38941;53.254;6.600;2023-02-15T00:04:32;26.95;;;13.40;;
51836;SDS011;38941;53.254;6.600;2023-02-15T00:06:55;29.30;;;14.52;;
51836;SDS011;38941;53.254;6.600;2023-02-15T00:09:08;28.63;;;14.20;;
51836;SDS011;38941;53.254;6.600;2023-02-15T00:11:17;32.25;;;14.95;;
51836;SDS011;38941;53.254;6.600;2023-02-15T00:13:48;26.88;;;14.40;;
51836;SDS011;38941;53.254;6.600;2023-02-15T00:15:59;30.33;;;14.43;;
51836;SDS011;38941;53.254;6.600;2023-02-15T00:18:03;38.60;;;17.63;;
51836;SDS011;38941;53.254;6.600;2023-02-15T00:20:20;36.60;;;15.90;;
51836;SDS011;38941;53.254;6.600;2023-02-15T00:24:46;36.55;;;16.67;;
51836;SDS011;38941;53.254;6.600;2023-02-15T00:26:50;32.10;;;15.27;;
51836;SDS011;38941;53.254;6.600;2023-02-15T00:28:54;31.85;;;15.75;;
51836;SDS011;38941;53.254;6.600;2023-02-15T00:31:10;30.90;;;15.10;;
51836;SDS011;38941;53.254;6.600;2023-02-15T00:35:40;30.67;;;15.98;;
51836;SDS011;38941;53.254;6.600;2023-02-15T00:40:08;29.48;;;13.85;;
51836;SDS011;38941;53.254;6.600;2023-02-15T00:42:17;25.55;;;13.80;;
51836;SDS011;38941;53.254;6.600;2023-02-15T00:44:30;28.05;;;13.75;;
51836;SDS011;38941;53.254;6.600;2023-02-15T00:48:44;27.40;;;13.63;;
51836;SDS011;38941;53.254;6.600;2023-02-15T00:50:50;25.60;;;13.18;;
51836;SDS011;38941;53.254;6.600;2023-02-15T00:52:54;26.42;;;13.75;;
51836;SDS011;38941;53.254;6.600;2023-02-15T00:54:55;24.30;;;13.25;;
51836;SDS011;38941;53.254;6.600;2023-02-15T00:56:57;21.23;;;11.82;;
51836;SDS011;38941;53.254;6.600;2023-02-15T00:59:15;26.30;;;12.80;;
51836;SDS011;38941;53.254;6.600;2023-02-15T01:01:27;24.42;;;13.30;;
51836;SDS011;38941;53.254;6.600;2023-02-15T01:03:29;23.88;;;13.48;;
51836;SDS011;38941;53.254;6.600;2023-02-15T01:05:31;23.25;;;13.35;;
51836;SDS011;38941;53.254;6.600;2023-02-15T01:15:09;23.30;;;11.55;;
51836;SDS011;38941;53.254;6.600;2023-02-15T01:23:02;24.13;;;12.38;;
51836;SDS011;38941;53.254;6.600;2023-02-15T01:30:18;24.65;;;13.00;;
51836;SDS011;38941;53.254;6.600;2023-02-15T01:32:26;25.65;;;13.48;;
51836;SDS011;38941;53.254;6.600;2023-02-15T01:34:28;24.20;;;13.18;;
51836;SDS011;38941;53.254;6.600;2023-02-15T01:36:30;26.50;;;14.68;;
51836;SDS011;38941;53.254;6.600;2023-02-15T01:38:32;27.83;;;13.60;;
51836;SDS011;38941;53.254;6.600;2023-02-15T01:40:34;24.75;;;12.85;;
51836;SDS011;38941;53.254;6.600;2023-02-15T01:42:35;25.17;;;12.60;;
51836;SDS011;38941;53.254;6.600;2023-02-15T01:47:00;24.48;;;12.40;;
51836;SDS011;38941;53.254;6.600;2023-02-15T01:56:08;19.50;;;11.48;;
51836;SDS011;38941;53.254;6.600;2023-02-15T02:01:38;21.30;;;11.32;;
51836;SDS011;38941;53.254;6.600;2023-02-15T02:06:12;23.38;;;11.98;;
51836;SDS011;38941;53.254;6.600;2023-02-15T02:08:14;22.92;;;11.70;;
51836;SDS011;38941;53.254;6.600;2023-02-15T02:10:29;23.02;;;11.45;;
51836;SDS011;38941;53.254;6.600;2023-02-15T02:12:36;22.70;;;11.63;;
51836;SDS011;38941;53.254;6.600;2023-02-15T02:14:51;19.30;;;10.77;;
51836;SDS011;38941;53.254;6.600;2023-02-15T02:27:19;27.38;;;12.70;;
51836;SDS011;38941;53.254;6.600;2023-02-15T02:37:30;25.40;;;12.90;;
51836;SDS011;38941;53.254;6.600;2023-02-15T02:42:35;36.75;;;13.82;;
51836;SDS011;38941;53.254;6.600;2023-02-15T02:44:55;27.40;;;12.10;;
51836;SDS011;38941;53.254;6.600;2023-02-15T02:47:08;28.13;;;12.63;;
51836;SDS011;38941;53.254;6.600;2023-02-15T02:49:10;24.35;;;11.00;;
51836;SDS011;38941;53.254;6.600;2023-02-15T02:51:21;22.77;;;11.35;;
51836;SDS011;38941;53.254;6.600;2023-02-15T02:53:22;24.00;;;11.55;;
51836;SDS011;38941;53.254;6.600;2023-02-15T02:55:40;21.77;;;10.73;;
51836;SDS011;38941;53.254;6.600;2023-02-15T03:00:17;27.17;;;12.82;;
51836;SDS011;38941;53.254;6.600;2023-02-15T03:02:21;26.80;;;12.35;;
51836;SDS011;38941;53.254;6.600;2023-02-15T03:07:00;26.95;;;13.57;;
51836;SDS011;38941;53.254;6.600;2023-02-15T03:11:25;63.00;;;15.35;;
51836;SDS011;38941;53.254;6.600;2023-02-15T03:13:27;204.00;;;19.90;;
51836;SDS011;38941;53.254;6.600;2023-02-15T03:15:40;226.68;;;20.63;;
51836;SDS011;38941;53.254;6.600;2023-02-15T03:18:02;323.20;;;23.08;;
51836;SDS011;38941;53.254;6.600;2023-02-15T03:20:13;109.03;;;17.63;;
51836;SDS011;38941;53.254;6.600;2023-02-15T03:22:20;127.25;;;18.60;;
51836;SDS011;38941;53.254;6.600;2023-02-15T03:24:41;43.05;;;15.07;;
51836;SDS011;38941;53.254;6.600;2023-02-15T03:31:15;28.05;;;13.55;;
51836;SDS011;38941;53.254;6.600;2023-02-15T03:35:29;27.27;;;13.63;;
51836;SDS011;38941;53.254;6.600;2023-02-15T03:37:47;26.35;;;13.27;;
51836;SDS011;38941;53.254;6.600;2023-02-15T03:40:00;25.42;;;14.07;;
51836;SDS011;38941;53.254;6.600;2023-02-15T03:42:26;26.55;;;13.40;;
51836;SDS011;38941;53.254;6.600;2023-02-15T03:44:37;28.65;;;14.65;;
51836;SDS011;38941;53.254;6.600;2023-02-15T03:47:15;27.00;;;13.48;;
51836;SDS011;38941;53.254;6.600;2023-02-15T03:53:49;39.58;;;14.38;;
51836;SDS011;38941;53.254;6.600;2023-02-15T03:55:59;26.95;;;14.55;;
51836;SDS011;38941;53.254;6.600;2023-02-15T03:58:00;29.55;;;14.57;;
51836;SDS011;38941;53.254;6.600;2023-02-15T04:00:24;27.23;;;14.13;;
51836;SDS011;38941;53.254;6.600;2023-02-15T04:07:15;26.65;;;14.25;;
51836;SDS011;38941;53.254;6.600;2023-02-15T04:09:17;26.88;;;14.60;;
51836;SDS011;38941;53.254;6.600;2023-02-15T04:11:38;28.48;;;13.88;;
51836;SDS011;38941;53.254;6.600;2023-02-15T04:13:46;25.63;;;13.75;;
51836;SDS011;38941;53.254;6.600;2023-02-15T04:16:02;24.63;;;13.55;;
51836;SDS011;38941;53.254;6.600;2023-02-15T04:18:03;27.25;;;13.55;;
51836;SDS011;38941;53.254;6.600;2023-02-15T04:22:44;27.60;;;14.35;;
51836;SDS011;38941;53.254;6.600;2023-02-15T04:25:13;29.38;;;14.70;;
51836;SDS011;38941;53.254;6.600;2023-02-15T04:27:15;28.38;;;15.60;;
51836;SDS011;38941;53.254;6.600;2023-02-15T04:29:23;32.22;;;15.35;;
51836;SDS011;38941;53.254;6.600;2023-02-15T04:31:25;32.63;;;15.60;;
51836;SDS011;38941;53.254;6.600;2023-02-15T04:35:43;32.38;;;16.15;;
51836;SDS011;38941;53.254;6.600;2023-02-15T04:37:54;33.05;;;15.80;;
51836;SDS011;38941;53.254;6.600;2023-02-15T04:40:02;29.05;;;14.98;;
51836;SDS011;38941;53.254;6.600;2023-02-15T04:42:05;29.67;;;14.97;;
51836;SDS011;38941;53.254;6.600;2023-02-15T04:44:11;29.92;;;14.20;;
51836;SDS011;38941;53.254;6.600;2023-02-15T04:48:34;28.85;;;15.02;;
51836;SDS011;38941;53.254;6.600;2023-02-15T04:50:36;33.15;;;15.00;;
51836;SDS011;38941;53.254;6.600;2023-02-15T04:52:38;32.25;;;16.80;;
51836;SDS011;38941;53.254;6.600;2023-02-15T04:54:47;35.72;;;17.45;;
51836;SDS011;38941;53.254;6.600;2023-02-15T04:56:50;28.65;;;15.73;;
51836;SDS011;38941;53.254;6.600;2023-02-15T04:59:02;29.60;;;15.85;;
51836;SDS011;38941;53.254;6.600;2023-02-15T05:03:23;26.77;;;15.55;;
51836;SDS011;38941;53.254;6.600;2023-02-15T05:05:24;28.20;;;15.52;;
51836;SDS011;38941;53.254;6.600;2023-02-15T05:07:31;32.05;;;16.48;;
51836;SDS011;38941;53.254;6.600;2023-02-15T05:09:32;32.35;;;16.20;;
51836;SDS011;38941;53.254;6.600;2023-02-15T05:11:47;26.65;;;14.20;;
51836;SDS011;38941;53.254;6.600;2023-02-15T05:14:00;31.60;;;15.35;;
51836;SDS011;38941;53.254;6.600;2023-02-15T05:16:03;30.77;;;16.35;;
51836;SDS011;38941;53.254;6.600;2023-02-15T05:18:18;31.90;;;15.88;;
51836;SDS011;38941;53.254;6.600;2023-02-15T05:25:56;33.10;;;16.10;;
51836;SDS011;38941;53.254;6.600;2023-02-15T05:28:18;27.65;;;14.68;;
51836;SDS011;38941;53.254;6.600;2023-02-15T05:30:29;28.67;;;14.75;;
51836;SDS011;38941;53.254;6.600;2023-02-15T05:34:34;29.27;;;15.35;;
51836;SDS011;38941;53.254;6.600;2023-02-15T05:36:43;30.63;;;15.25;;
51836;SDS011;38941;53.254;6.600;2023-02-15T05:41:22;34.47;;;16.95;;
51836;SDS011;38941;53.254;6.600;2023-02-15T05:43:25;32.15;;;16.23;;
51836;SDS011;38941;53.254;6.600;2023-02-15T05:45:26;35.47;;;17.17;;
51836;SDS011;38941;53.254;6.600;2023-02-15T05:47:28;31.85;;;16.35;;
51836;SDS011;38941;53.254;6.600;2023-02-15T05:49:30;38.70;;;17.52;;
51836;SDS011;38941;53.254;6.600;2023-02-15T05:51:31;35.38;;;18.13;;
51836;SDS011;38941;53.254;6.600;2023-02-15T05:53:39;34.92;;;16.35;;
51836;SDS011;38941;53.254;6.600;2023-02-15T05:55:43;38.83;;;18.83;;
51836;SDS011;38941;53.254;6.600;2023-02-15T05:57:45;36.08;;;18.15;;
51836;SDS011;38941;53.254;6.600;2023-02-15T05:59:47;39.15;;;19.88;;
51836;SDS011;38941;53.254;6.600;2023-02-15T06:01:49;36.15;;;18.33;;
51836;SDS011;38941;53.254;6.600;2023-02-15T06:03:53;41.67;;;19.90;;
51836;SDS011;38941;53.254;6.600;2023-02-15T06:05:56;44.28;;;20.48;;
51836;SDS011;38941;53.254;6.600;2023-02-15T06:08:03;45.28;;;20.45;;
51836;SDS011;38941;53.254;6.600;2023-02-15T06:10:05;42.55;;;19.58;;
51836;SDS011;38941;53.254;6.600;2023-02-15T06:12:08;46.92;;;21.85;;
51836;SDS011;38941;53.254;6.600;2023-02-15T06:14:11;43.90;;;21.52;;
51836;SDS011;38941;53.254;6.600;2023-02-15T06:16:24;44.42;;;21.38;;
51836;SDS011;38941;53.254;6.600;2023-02-15T06:18:25;45.45;;;22.08;;
51836;SDS011;38941;53.254;6.600;2023-02-15T06:20:27;48.63;;;22.83;;
51836;SDS011;38941;53.254;6.600;2023-02-15T06:22:29;51.58;;;22.67;;
51836;SDS011;38941;53.254;6.600;2023-02-15T06:24:31;44.60;;;22.75;;
51836;SDS011;38941;53.254;6.600;2023-02-15T06:26:38;47.80;;;22.80;;
51836;SDS011;38941;53.254;6.600;2023-02-15T06:28:41;55.70;;;25.10;;
51836;SDS011;38941;53.254;6.600;2023-02-15T06:30:43;50.45;;;23.38;;
51836;SDS011;38941;53.254;6.600;2023-02-15T06:32:45;50.83;;;22.65;;
51836;SDS011;38941;53.254;6.600;2023-02-15T06:34:47;51.30;;;23.00;;
51836;SDS011;38941;53.254;6.600;2023-02-15T06:36:49;53.05;;;24.02;;
51836;SDS011;38941;53.254;6.600;2023-02-15T06:38:52;48.92;;;23.27;;
51836;SDS011;38941;53.254;6.600;2023-02-15T06:40:53;51.72;;;23.58;;
51836;SDS011;38941;53.254;6.600;2023-02-15T06:42:55;49.20;;;23.15;;
51836;SDS011;38941;53.254;6.600;2023-02-15T06:44:59;61.80;;;27.83;;
51836;SDS011;38941;53.254;6.600;2023-02-15T06:47:03;53.67;;;24.98;;
51836;SDS011;38941;53.254;6.600;2023-02-15T06:49:05;50.25;;;24.30;;
51836;SDS011;38941;53.254;6.600;2023-02-15T06:51:07;53.05;;;24.27;;
51836;SDS011;38941;53.254;6.600;2023-02-15T06:53:09;56.35;;;23.10;;
51836;SDS011;38941;53.254;6.600;2023-02-15T06:55:12;45.40;;;22.38;;
51836;SDS011;38941;53.254;6.600;2023-02-15T06:57:12;52.45;;;22.88;;
51836;SDS011;38941;53.254;6.600;2023-02-15T06:59:15;51.30;;;22.05;;
51836;SDS011;38941;53.254;6.600;2023-02-15T07:01:17;50.35;;;23.92;;
51836;SDS011;38941;53.254;6.600;2023-02-15T07:03:20;48.92;;;23.13;;
51836;SDS011;38941;53.254;6.600;2023-02-15T07:05:25;42.35;;;21.48;;
51836;SDS011;38941;53.254;6.600;2023-02-15T07:07:36;56.78;;;22.30;;
51836;SDS011;38941;53.254;6.600;2023-02-15T07:09:38;52.35;;;22.80;;
51836;SDS011;38941;53.254;6.600;2023-02-15T07:11:39;49.15;;;22.60;;
51836;SDS011;38941;53.254;6.600;2023-02-15T07:13:59;49.38;;;22.75;;
51836;SDS011;38941;53.254;6.600;2023-02-15T07:16:01;46.75;;;21.83;;
51836;SDS011;38941;53.254;6.600;2023-02-15T07:18:01;50.58;;;22.45;;
51836;SDS011;38941;53.254;6.600;2023-02-15T07:20:06;44.13;;;22.35;;
51836;SDS011;38941;53.254;6.600;2023-02-15T07:22:12;49.33;;;22.83;;
51836;SDS011;38941;53.254;6.600;2023-02-15T07:24:14;50.72;;;23.42;;
51836;SDS011;38941;53.254;6.600;2023-02-15T07:26:16;47.13;;;23.13;;
51836;SDS011;38941;53.254;6.600;2023-02-15T07:28:18;47.85;;;21.80;;
51836;SDS011;38941;53.254;6.600;2023-02-15T07:30:20;46.63;;;22.73;;
51836;SDS011;38941;53.254;6.600;2023-02-15T07:32:22;58.20;;;24.38;;
51836;SDS011;38941;53.254;6.600;2023-02-15T07:34:30;51.03;;;21.85;;
51836;SDS011;38941;53.254;6.600;2023-02-15T07:36:32;56.40;;;24.02;;
51836;SDS011;38941;53.254;6.600;2023-02-15T07:38:34;48.95;;;21.58;;
51836;SDS011;38941;53.254;6.600;2023-02-15T07:40:38;42.53;;;20.77;;
51836;SDS011;38941;53.254;6.600;2023-02-15T07:42:39;44.20;;;20.33;;
51836;SDS011;38941;53.254;6.600;2023-02-15T07:44:52;41.03;;;19.80;;
51836;SDS011;38941;53.254;6.600;2023-02-15T07:46:53;42.05;;;19.88;;
51836;SDS011;38941;53.254;6.600;2023-02-15T07:48:54;43.65;;;20.52;;
51836;SDS011;38941;53.254;6.600;2023-02-15T07:50:58;42.40;;;20.92;;
51836;SDS011;38941;53.254;6.600;2023-02-15T07:53:04;45.03;;;20.00;;
51836;SDS011;38941;53.254;6.600;2023-02-15T07:55:06;44.95;;;20.75;;
51836;SDS011;38941;53.254;6.600;2023-02-15T07:57:08;38.03;;;20.00;;
51836;SDS011;38941;53.254;6.600;2023-02-15T07:59:22;43.60;;;20.38;;
51836;SDS011;38941;53.254;6.600;2023-02-15T08:01:26;44.08;;;20.35;;
51836;SDS011;38941;53.254;6.600;2023-02-15T08:03:35;49.78;;;20.40;;
51836;SDS011;38941;53.254;6.600;2023-02-15T08:05:36;46.65;;;22.15;;
51836;SDS011;38941;53.254;6.600;2023-02-15T08:07:43;48.42;;;21.00;;
51836;SDS011;38941;53.254;6.600;2023-02-15T08:09:44;50.63;;;21.88;;
51836;SDS011;38941;53.254;6.600;2023-02-15T08:11:46;44.67;;;21.70;;
51836;SDS011;38941;53.254;6.600;2023-02-15T08:13:49;45.50;;;22.92;;
51836;SDS011;38941;53.254;6.600;2023-02-15T08:15:56;40.83;;;20.20;;
51836;SDS011;38941;53.254;6.600;2023-02-15T08:17:56;45.33;;;21.15;;
51836;SDS011;38941;53.254;6.600;2023-02-15T08:22:30;42.53;;;20.70;;
51836;SDS011;38941;53.254;6.600;2023-02-15T08:24:32;41.90;;;19.17;;
51836;SDS011;38941;53.254;6.600;2023-02-15T08:26:47;41.88;;;19.88;;
51836;SDS011;38941;53.254;6.600;2023-02-15T08:28:50;41.47;;;19.23;;
51836;SDS011;38941;53.254;6.600;2023-02-15T08:30:51;38.67;;;19.77;;
51836;SDS011;38941;53.254;6.600;2023-02-15T08:32:53;38.25;;;18.75;;
51836;SDS011;38941;53.254;6.600;2023-02-15T08:35:05;41.92;;;19.25;;
51836;SDS011;38941;53.254;6.600;2023-02-15T08:37:07;35.97;;;18.20;;
51836;SDS011;38941;53.254;6.600;2023-02-15T08:42:02;37.35;;;17.90;;
51836;SDS011;38941;53.254;6.600;2023-02-15T08:44:19;34.88;;;17.10;;
51836;SDS011;38941;53.254;6.600;2023-02-15T08:46:21;35.05;;;16.80;;
51836;SDS011;38941;53.254;6.600;2023-02-15T08:48:29;36.78;;;18.85;;
51836;SDS011;38941;53.254;6.600;2023-02-15T08:50:38;32.10;;;17.15;;
51836;SDS011;38941;53.254;6.600;2023-02-15T08:54:43;34.45;;;17.50;;
51836;SDS011;38941;53.254;6.600;2023-02-15T08:56:45;33.28;;;16.95;;
51836;SDS011;38941;53.254;6.600;2023-02-15T08:58:46;32.50;;;17.10;;
51836;SDS011;38941;53.254;6.600;2023-02-15T09:00:48;32.17;;;16.98;;
51836;SDS011;38941;53.254;6.600;2023-02-15T09:02:49;31.02;;;16.52;;
51836;SDS011;38941;53.254;6.600;2023-02-15T09:04:50;32.70;;;15.80;;
51836;SDS011;38941;53.254;6.600;2023-02-15T09:06:52;35.90;;;17.48;;
51836;SDS011;38941;53.254;6.600;2023-02-15T09:08:54;27.98;;;14.88;;
51836;SDS011;38941;53.254;6.600;2023-02-15T09:11:13;31.42;;;16.40;;
51836;SDS011;38941;53.254;6.600;2023-02-15T09:13:22;32.55;;;15.77;;
51836;SDS011;38941;53.254;6.600;2023-02-15T09:15:23;31.23;;;14.93;;
51836;SDS011;38941;53.254;6.600;2023-02-15T09:17:24;31.23;;;14.82;;
51836;SDS011;38941;53.254;6.600;2023-02-15T09:19:25;31.98;;;15.20;;
51836;SDS011;38941;53.254;6.600;2023-02-15T09:21:28;26.30;;;14.05;;
51836;SDS011;38941;53.254;6.600;2023-02-15T09:23:29;28.42;;;14.90;;
51836;SDS011;38941;53.254;6.600;2023-02-15T09:25:30;30.10;;;13.38;;
51836;SDS011;38941;53.254;6.600;2023-02-15T09:27:30;40.08;;;15.35;;
51836;SDS011;38941;53.254;6.600;2023-02-15T09:29:31;34.03;;;14.32;;
51836;SDS011;38941;53.254;6.600;2023-02-15T09:31:33;28.83;;;14.45;;
51836;SDS011;38941;53.254;6.600;2023-02-15T09:33:38;29.17;;;13.75;;
51836;SDS011;38941;53.254;6.600;2023-02-15T09:35:40;27.15;;;14.27;;
51836;SDS011;38941;53.254;6.600;2023-02-15T09:37:40;29.83;;;15.95;;
51836;SDS011;38941;53.254;6.600;2023-02-15T09:39:43;27.90;;;15.20;;
51836;SDS011;38941;53.254;6.600;2023-02-15T09:57:29;28.45;;;13.68;;
51836;SDS011;38941;53.254;6.600;2023-02-15T10:06:41;27.45;;;14.40;;
51836;SDS011;38941;53.254;6.600;2023-02-15T10:09:02;24.50;;;13.63;;
51836;SDS011;38941;53.254;6.600;2023-02-15T10:13:41;31.95;;;13.90;;
51836;SDS011;38941;53.254;6.600;2023-02-15T10:18:28;27.75;;;14.40;;
51836;SDS011;38941;53.254;6.600;2023-02-15T10:25:40;25.45;;;13.85;;
51836;SDS011;38941;53.254;6.600;2023-02-15T10:27:46;26.85;;;13.50;;
51836;SDS011;38941;53.254;6.600;2023-02-15T10:32:24;28.05;;;14.32;;
51836;SDS011;38941;53.254;6.600;2023-02-15T10:34:32;26.08;;;13.88;;
51836;SDS011;38941;53.254;6.600;2023-02-15T10:41:33;29.45;;;13.82;;
51836;SDS011;38941;53.254;6.600;2023-02-15T10:43:59;31.13;;;14.93;;
51836;SDS011;38941;53.254;6.600;2023-02-15T10:57:04;31.92;;;15.68;;
51836;SDS011;38941;53.254;6.600;2023-02-15T10:59:37;30.13;;;15.50;;
51836;SDS011;38941;53.254;6.600;2023-02-15T11:02:01;26.85;;;14.70;;
51836;SDS011;38941;53.254;6.600;2023-02-15T11:06:47;28.17;;;15.50;;
51836;SDS011;38941;53.254;6.600;2023-02-15T11:09:01;29.52;;;14.15;;
51836;SDS011;38941;53.254;6.600;2023-02-15T11:11:10;27.77;;;16.50;;
51836;SDS011;38941;53.254;6.600;2023-02-15T11:13:17;31.08;;;16.67;;
51836;SDS011;38941;53.254;6.600;2023-02-15T11:17:39;31.13;;;15.05;;
51836;SDS011;38941;53.254;6.600;2023-02-15T11:19:49;27.65;;;15.23;;
51836;SDS011;38941;53.254;6.600;2023-02-15T11:22:00;32.10;;;15.05;;
51836;SDS011;38941;53.254;6.600;2023-02-15T11:24:10;31.60;;;15.43;;
51836;SDS011;38941;53.254;6.600;2023-02-15T11:26:22;29.33;;;14.98;;
51836;SDS011;38941;53.254;6.600;2023-02-15T11:28:39;29.05;;;14.70;;
51836;SDS011;38941;53.254;6.600;2023-02-15T11:30:49;27.80;;;15.15;;
51836;SDS011;38941;53.254;6.600;2023-02-15T11:32:54;38.55;;;17.05;;
51836;SDS011;38941;53.254;6.600;2023-02-15T11:37:12;37.28;;;16.95;;
51836;SDS011;38941;53.254;6.600;2023-02-15T11:39:17;34.28;;;15.68;;
51836;SDS011;38941;53.254;6.600;2023-02-15T11:41:21;34.30;;;16.20;;
51836;SDS011;38941;53.254;6.600;2023-02-15T11:45:40;35.25;;;15.75;;
51836;SDS011;38941;53.254;6.600;2023-02-15T11:47:43;34.22;;;15.80;;
51836;SDS011;38941;53.254;6.600;2023-02-15T11:49:45;31.48;;;15.45;;
51836;SDS011;38941;53.254;6.600;2023-02-15T11:51:46;34.58;;;14.73;;
51836;SDS011;38941;53.254;6.600;2023-02-15T11:53:47;30.38;;;14.98;;
51836;SDS011;38941;53.254;6.600;2023-02-15T11:55:49;33.42;;;17.30;;
51836;SDS011;38941;53.254;6.600;2023-02-15T11:58:37;31.95;;;15.38;;
51836;SDS011;38941;53.254;6.600;2023-02-15T12:02:26;34.80;;;15.68;;
51836;SDS011;38941;53.254;6.600;2023-02-15T12:04:30;32.20;;;16.33;;
51836;SDS011;38941;53.254;6.600;2023-02-15T12:06:46;33.10;;;15.88;;
51836;SDS011;38941;53.254;6.600;2023-02-15T12:09:01;34.55;;;15.95;;
51836;SDS011;38941;53.254;6.600;2023-02-15T12:11:35;35.38;;;15.93;;
51836;SDS011;38941;53.254;6.600;2023-02-15T12:16:15;35.10;;;16.40;;
51836;SDS011;38941;53.254;6.600;2023-02-15T12:18:33;36.95;;;16.75;;
51836;SDS011;38941;53.254;6.600;2023-02-15T12:20:39;31.60;;;15.55;;
51836;SDS011;38941;53.254;6.600;2023-02-15T12:22:45;32.92;;;16.60;;
51836;SDS011;38941;53.254;6.600;2023-02-15T12:24:55;33.20;;;15.88;;
51836;SDS011;38941;53.254;6.600;2023-02-15T12:27:14;34.13;;;15.73;;
51836;SDS011;38941;53.254;6.600;2023-02-15T12:31:25;32.60;;;15.02;;
51836;SDS011;38941;53.254;6.600;2023-02-15T12:33:38;34.00;;;15.20;;
51836;SDS011;38941;53.254;6.600;2023-02-15T12:35:45;38.25;;;14.88;;
51836;SDS011;38941;53.254;6.600;2023-02-15T12:38:23;34.90;;;14.95;;
51836;SDS011;38941;53.254;6.600;2023-02-15T12:40:21;31.80;;;14.13;;
51836;SDS011;38941;53.254;6.600;2023-02-15T12:42:40;32.47;;;15.93;;
51836;SDS011;38941;53.254;6.600;2023-02-15T12:45:01;32.42;;;14.88;;
51836;SDS011;38941;53.254;6.600;2023-02-15T12:47:19;29.55;;;14.52;;
51836;SDS011;38941;53.254;6.600;2023-02-15T12:49:22;28.05;;;14.63;;
51836;SDS011;38941;53.254;6.600;2023-02-15T12:51:22;34.80;;;16.95;;
51836;SDS011;38941;53.254;6.600;2023-02-15T12:53:31;36.55;;;16.27;;
51836;SDS011;38941;53.254;6.600;2023-02-15T12:55:33;40.85;;;16.38;;
51836;SDS011;38941;53.254;6.600;2023-02-15T12:57:34;35.78;;;16.40;;
51836;SDS011;38941;53.254;6.600;2023-02-15T12:59:35;30.67;;;15.30;;
51836;SDS011;38941;53.254;6.600;2023-02-15T13:01:37;37.05;;;16.27;;
51836;SDS011;38941;53.254;6.600;2023-02-15T13:03:53;37.85;;;17.73;;
51836;SDS011;38941;53.254;6.600;2023-02-15T13:05:59;37.33;;;17.58;;
51836;SDS011;38941;53.254;6.600;2023-02-15T13:08:03;37.28;;;16.83;;
51836;SDS011;38941;53.254;6.600;2023-02-15T13:10:25;32.78;;;16.02;;
51836;SDS011;38941;53.254;6.600;2023-02-15T13:12:28;34.20;;;18.27;;
51836;SDS011;38941;53.254;6.600;2023-02-15T13:14:32;42.42;;;19.98;;
51836;SDS011;38941;53.254;6.600;2023-02-15T13:16:34;33.42;;;17.75;;
51836;SDS011;38941;53.254;6.600;2023-02-15T13:18:38;40.80;;;19.02;;
51836;SDS011;38941;53.254;6.600;2023-02-15T13:20:46;35.08;;;17.02;;
51836;SDS011;38941;53.254;6.600;2023-02-15T13:22:50;37.00;;;17.95;;
51836;SDS011;38941;53.254;6.600;2023-02-15T13:25:01;39.67;;;20.05;;
51836;SDS011;38941;53.254;6.600;2023-02-15T13:27:14;36.50;;;17.92;;
51836;SDS011;38941;53.254;6.600;2023-02-15T13:29:34;35.25;;;17.65;;
51836;SDS011;38941;53.254;6.600;2023-02-15T13:31:37;38.63;;;18.08;;
51836;SDS011;38941;53.254;6.600;2023-02-15T13:33:39;40.17;;;20.15;;
51836;SDS011;38941;53.254;6.600;2023-02-15T13:35:49;37.50;;;17.90;;
51836;SDS011;38941;53.254;6.600;2023-02-15T13:38:11;35.13;;;18.02;;
51836;SDS011;38941;53.254;6.600;2023-02-15T13:46:56;42.60;;;20.38;;
51836;SDS011;38941;53.254;6.600;2023-02-15T14:00:30;35.40;;;17.80;;
51836;SDS011;38941;53.254;6.600;2023-02-15T14:05:04;37.75;;;18.65;;
51836;SDS011;38941;53.254;6.600;2023-02-15T14:07:25;34.20;;;17.08;;
51836;SDS011;38941;53.254;6.600;2023-02-15T14:18:25;33.83;;;17.02;;
51836;SDS011;38941;53.254;6.600;2023-02-15T14:23:01;34.83;;;16.08;;
51836;SDS011;38941;53.254;6.600;2023-02-15T14:30:20;35.90;;;17.30;;
51836;SDS011;38941;53.254;6.600;2023-02-15T14:36:49;34.25;;;17.52;;
51836;SDS011;38941;53.254;6.600;2023-02-15T14:49:06;32.92;;;17.60;;
51836;SDS011;38941;53.254;6.600;2023-02-15T14:53:49;35.17;;;16.38;;
51836;SDS011;38941;53.254;6.600;2023-02-15T14:56:04;34.25;;;16.73;;
51836;SDS011;38941;53.254;6.600;2023-02-15T14:58:10;34.22;;;16.23;;
51836;SDS011;38941;53.254;6.600;2023-02-15T15:02:49;35.38;;;17.73;;
51836;SDS011;38941;53.254;6.600;2023-02-15T15:07:03;35.63;;;17.38;;
51836;SDS011;38941;53.254;6.600;2023-02-15T15:09:22;34.92;;;17.23;;
51836;SDS011;38941;53.254;6.600;2023-02-15T15:23:48;34.20;;;16.15;;
51836;SDS011;38941;53.254;6.600;2023-02-15T15:25:51;31.90;;;16.77;;
51836;SDS011;38941;53.254;6.600;2023-02-15T15:29:00;39.22;;;16.25;;
51836;SDS011;38941;53.254;6.600;2023-02-15T15:32:47;39.22;;;17.85;;
51836;SDS011;38941;53.254;6.600;2023-02-15T15:41:49;33.00;;;15.32;;
51836;SDS011;38941;53.254;6.600;2023-02-15T15:44:22;30.58;;;16.08;;
51836;SDS011;38941;53.254;6.600;2023-02-15T15:49:19;34.80;;;15.82;;
51836;SDS011;38941;53.254;6.600;2023-02-15T15:51:25;34.80;;;16.38;;
51836;SDS011;38941;53.254;6.600;2023-02-15T15:53:31;34.97;;;16.58;;
51836;SDS011;38941;53.254;6.600;2023-02-15T15:55:40;30.85;;;16.08;;
51836;SDS011;38941;53.254;6.600;2023-02-15T15:57:41;37.33;;;17.65;;
51836;SDS011;38941;53.254;6.600;2023-02-15T15:59:45;35.30;;;16.25;;
51836;SDS011;38941;53.254;6.600;2023-02-15T16:01:47;40.25;;;18.38;;
51836;SDS011;38941;53.254;6.600;2023-02-15T16:03:49;36.10;;;17.40;;
51836;SDS011;38941;53.254;6.600;2023-02-15T16:05:51;31.98;;;15.52;;
51836;SDS011;38941;53.254;6.600;2023-02-15T16:07:55;37.42;;;17.83;;
51836;SDS011;38941;53.254;6.600;2023-02-15T16:09:57;33.35;;;15.05;;
51836;SDS011;38941;53.254;6.600;2023-02-15T16:12:04;32.05;;;16.80;;
51836;SDS011;38941;53.254;6.600;2023-02-15T16:14:30;34.33;;;16.67;;
51836;SDS011;38941;53.254;6.600;2023-02-15T16:16:34;32.55;;;17.38;;
51836;SDS011;38941;53.254;6.600;2023-02-15T16:18:37;34.33;;;16.13;;
51836;SDS011;38941;53.254;6.600;2023-02-15T16:20:48;32.47;;;15.95;;
51836;SDS011;38941;53.254;6.600;2023-02-15T16:25:38;30.90;;;15.80;;
51836;SDS011;38941;53.254;6.600;2023-02-15T16:28:08;35.50;;;17.30;;
51836;SDS011;38941;53.254;6.600;2023-02-15T16:30:31;35.42;;;17.00;;
51836;SDS011;38941;53.254;6.600;2023-02-15T16:32:34;35.40;;;17.05;;
51836;SDS011;38941;53.254;6.600;2023-02-15T16:34:38;35.58;;;16.85;;
51836;SDS011;38941;53.254;6.600;2023-02-15T16:36:50;34.13;;;17.63;;
51836;SDS011;38941;53.254;6.600;2023-02-15T16:40:51;37.00;;;19.27;;
51836;SDS011;38941;53.254;6.600;2023-02-15T16:43:00;31.08;;;16.83;;
51836;SDS011;38941;53.254;6.600;2023-02-15T16:45:07;38.42;;;18.42;;
51836;SDS011;38941;53.254;6.600;2023-02-15T16:47:17;39.45;;;16.60;;
51836;SDS011;38941;53.254;6.600;2023-02-15T16:49:28;35.50;;;16.67;;
51836;SDS011;38941;53.254;6.600;2023-02-15T16:51:32;35.30;;;17.48;;
51836;SDS011;38941;53.254;6.600;2023-02-15T16:53:34;40.45;;;18.38;;
51836;SDS011;38941;53.254;6.600;2023-02-15T16:55:40;33.67;;;17.40;;